Darwin (aus-afb

ADDN · 北領地, 澳大利亚

METAR ADDN · Darwin (aus-afb

13 六月 10:00 LT
22m
罗盘
风向 的 风向 050°
风: 5 kt, 2 beaufort

添加一条跑道以查看侧风和逆风信息。

添置 跑道
0 ft 1.000 2.000 3.000 4.000 5.000
CAVOK
METAR YPDN 130030Z 05005KT CAVOK 27/17 Q1015

METAR Darwin (aus-afb - ADDN

Darwin (aus-afb是,澳大利亚中的未知。 该机场位于纬度-12,40000和经度130,86667。 本场的ICAO机场代码为ADDN。 机场在Brisbane FIR中。

该航空气象观测是针对達爾文國際機場在2024年6月13日 10:00, 当地时间进行的。

机场观察

风向为050°,速度为5 kt。

天气为CAVOK。这意味着在5.000 ft或MSA(最低安全高度)以下(以较高者为准)以下没有云。这也意味着没有观测到积雨云或高耸的积云,可见度为10 km 或者更多或更高。此外,不会有雾,降雨或其他重要天气。

温度和风寒是27 °C。 热指数为28。 露点为17 °C,相对湿度为54%。 海平面上的气压为1015 hPa (QNH)。

白天

今天,太阳从07:04升起,在18:28降落。 这适用于Darwin (aus-afb,世界夏令时可能有所不同。 当地时间与世界标准时间之间的时差为+9 小时 30 分钟。 夏令时目前正在进行中。

公司介绍

我们没有关于这个机场的公司信息。

体会

到Vliegles.nl去找飞行课程,跳伞和其他飞行体验。 浏览页面,了解Darwin (aus-afb附近所有可用的活动。 你也可以使用搜索功能来寻找你所在地附近的特定飞行课程、跳伞或其他飞行体验。

温度 & 天气

温度 27 °C
露点 17 °C
相对湿度 54%
热度指数 28 °C
Kp-index 0 (0-9)

白天

日出
07:04
中午
12:46
日落
18:28 (8:07)

小工具

你想在你的网站上有一个关于Darwin (aus-afb的当前航空天气(METAR)的小部件吗?

显示HTML代码
报告变更